Time;durP1;ratioP1;P1;durP2;ratioP2;P2;SDS_P1;SDS_P2;PMS_P1;PMS_P2;Temp;Humidity;BMP_temperature;BMP_pressure;BME280_temperature;BME280_humidity;BME280_pressure;Samples;Min_cycle;Max_cycle;Signal;HPM_P1;HPM_P2
2022/10/29 00:00:24;;;;;;;96.88;29.58;;;;;;;11.61;100.00;99389.72;5173726;27;20054;-47
2022/10/29 00:02:50;;;;;;;99.13;30.05;;;;;;;11.69;100.00;99399.66;5174225;27;20648;-47
2022/10/29 00:05:17;;;;;;;85.82;30.52;;;;;;;11.34;100.00;99369.66;5173751;27;20046;-48
2022/10/29 00:07:43;;;;;;;85.25;29.85;;;;;;;11.14;100.00;99344.22;5174010;27;20050;-47
2022/10/29 00:10:09;;;;;;;87.55;27.73;;;;;;;11.19;100.00;99315.66;5173470;27;20057;-51
2022/10/29 00:12:36;;;;;;;91.97;31.23;;;;;;;11.53;100.00;99325.69;5173630;27;20053;-49
2022/10/29 00:15:02;;;;;;;85.00;28.90;;;;;;;11.91;100.00;99345.91;5173525;27;20054;-48
2022/10/29 00:17:28;;;;;;;93.05;28.63;;;;;;;11.64;100.00;99356.06;5173477;27;20100;-50
2022/10/29 00:19:55;;;;;;;88.35;28.25;;;;;;;11.51;100.00;99349.16;5173289;27;20076;-51
2022/10/29 00:22:22;;;;;;;102.88;30.42;;;;;;;11.60;100.00;99340.69;5173332;27;20134;-48
2022/10/29 00:24:48;;;;;;;87.18;29.80;;;;;;;11.67;100.00;99340.81;5173241;27;20054;-48
2022/10/29 00:27:14;;;;;;;91.45;29.17;;;;;;;11.84;100.00;99345.00;5173088;27;20050;-49
2022/10/29 00:29:40;;;;;;;80.43;25.88;;;;;;;11.61;100.00;99334.81;5173210;27;20053;-48
2022/10/29 00:32:08;;;;;;;87.53;27.95;;;;;;;12.00;100.00;99334.69;5173387;27;20050;-47
2022/10/29 00:34:35;;;;;;;89.40;29.27;;;;;;;11.86;100.00;99338.00;5173014;27;20085;-52
2022/10/29 00:37:01;;;;;;;78.55;26.00;;;;;;;11.43;100.00;99329.03;5173029;27;20061;-50
2022/10/29 00:39:28;;;;;;;76.00;25.55;;;;;;;11.41;100.00;99312.13;5173189;27;20052;-48
2022/10/29 00:41:55;;;;;;;78.88;28.13;;;;;;;11.49;100.00;99291.84;5172823;27;20061;-48
2022/10/29 00:44:30;;;;;;;73.50;26.45;;;;;;;11.62;100.00;99288.94;5173027;27;20054;-47
2022/10/29 00:47:01;;;;;;;86.95;28.38;;;;;;;11.81;100.00;99293.53;5173352;27;20050;-47
2022/10/29 00:49:29;;;;;;;82.43;28.25;;;;;;;11.77;100.00;99286.03;5172806;27;20497;-49
2022/10/29 00:51:56;;;;;;;72.18;25.77;;;;;;;11.40;100.00;99279.56;5172891;27;20465;-47
2022/10/29 00:54:23;;;;;;;83.75;26.38;;;;;;;11.46;100.00;99262.44;5172857;27;20497;-47
2022/10/29 00:56:53;;;;;;;89.30;26.98;;;;;;;11.53;100.00;99256.25;5172845;27;20424;-48
2022/10/29 00:59:20;;;;;;;76.72;27.50;;;;;;;11.68;100.00;99258.03;5172537;27;20050;-48
2022/10/29 01:01:47;;;;;;;80.60;28.73;;;;;;;12.12;100.00;99275.94;5172993;27;20417;-48
2022/10/29 01:04:15;;;;;;;85.68;27.85;;;;;;;12.05;100.00;99284.09;5172493;27;20091;-47
2022/10/29 01:06:42;;;;;;;79.60;27.40;;;;;;;11.85;100.00;99286.94;5172616;27;20052;-47
2022/10/29 01:09:09;;;;;;;83.72;27.90;;;;;;;11.64;100.00;99279.16;5172959;27;20126;-47
2022/10/29 01:11:47;;;;;;;81.70;28.58;;;;;;;11.80;100.00;99275.47;5172432;27;20531;-47
2022/10/29 01:14:22;;;;;;;86.65;26.83;;;;;;;11.74;100.00;99273.03;5172770;27;20609;-48
2022/10/29 01:16:56;;;;;;;80.00;27.33;;;;;;;11.92;100.00;99278.03;5172396;27;20134;-47
2022/10/29 01:19:49;;;;;;;80.80;26.10;;;;;;;12.11;100.00;99285.34;5172410;27;20053;-47
2022/10/29 01:22:24;;;;;;;79.47;27.77;;;;;;;12.16;100.00;99287.75;5169517;27;20121;-48
2022/10/29 01:25:17;;;;;;;88.18;29.33;;;;;;;12.38;100.00;99289.63;5171671;27;20050;-48
2022/10/29 01:27:54;;;;;;;81.72;28.95;;;;;;;11.97;100.00;99316.19;5172437;27;20053;-48
2022/10/29 01:30:40;;;;;;;80.82;26.60;;;;;;;12.19;100.00;99287.03;5172501;27;20535;-49
2022/10/29 01:33:15;;;;;;;79.95;28.02;;;;;;;12.08;100.00;99273.16;5172376;27;20046;-49
2022/10/29 01:35:50;;;;;;;78.82;27.80;;;;;;;12.11;100.00;99288.09;5172117;27;20085;-48
2022/10/29 01:38:27;;;;;;;91.25;28.88;;;;;;;12.35;100.00;99287.63;5171960;27;20050;-49
2022/10/29 01:41:01;;;;;;;75.82;27.13;;;;;;;12.09;100.00;99291.22;5172281;27;20062;-47
2022/10/29 01:43:31;;;;;;;;;;;;;;;12.10;100.00;99284.56;5172378;27;20050;-50
2022/10/29 01:46:01;;;;;;;77.20;26.80;;;;;;;11.85;100.00;99269.69;5172157;27;19934;-49
2022/10/29 01:48:32;;;;;;;75.65;26.25;;;;;;;11.77;100.00;99241.31;5171810;27;20627;-50
2022/10/29 01:51:03;;;;;;;87.75;27.90;;;;;;;12.04;100.00;99228.34;5172249;27;20057;-47
2022/10/29 01:53:34;;;;;;;89.70;28.70;;;;;;;11.61;100.00;99216.75;5171939;27;20113;-48
2022/10/29 01:56:00;;;;;;;83.97;26.83;;;;;;;11.79;100.00;99189.53;5172242;27;20047;-48
2022/10/29 01:58:26;;;;;;;103.97;29.55;;;;;;;11.92;100.00;99185.41;5171675;27;20047;-47
2022/10/29 02:01:01;;;;;;;93.55;28.98;;;;;;;11.80;100.00;99177.38;5171864;27;20050;-47
2022/10/29 02:03:37;;;;;;;94.88;28.05;;;;;;;11.84;100.00;99171.94;5172076;27;20059;-47
2022/10/29 02:06:10;;;;;;;98.68;29.73;;;;;;;12.02;100.00;99170.22;5171748;27;20057;-47
2022/10/29 02:08:46;;;;;;;109.23;29.73;;;;;;;12.17;100.00;99182.97;5171914;27;20046;-47
2022/10/29 02:11:17;;;;;;;101.32;31.17;;;;;;;12.22;100.00;99181.84;5171536;27;20051;-47
2022/10/29 02:13:49;;;;;;;103.53;31.75;;;;;;;11.97;100.00;99165.06;5171963;27;20050;-47
2022/10/29 02:16:16;;;;;;;93.78;30.38;;;;;;;11.82;100.00;99168.75;5171854;27;20049;-47
2022/10/29 02:18:45;;;;;;;115.90;33.25;;;;;;;12.32;100.00;99153.66;5171513;27;20046;-47
2022/10/29 02:21:15;;;;;;;120.50;34.05;;;;;;;12.25;100.00;99176.38;5171739;27;20137;-48
2022/10/29 02:23:41;;;;;;;110.85;31.05;;;;;;;12.01;100.00;99158.44;5171610;27;20120;-47
2022/10/29 02:26:07;;;;;;;118.65;32.80;;;;;;;11.99;100.00;99146.22;5171599;27;20047;-48
2022/10/29 02:28:34;;;;;;;113.65;32.40;;;;;;;12.15;100.00;99144.06;5171452;27;20051;-47
2022/10/29 02:31:00;;;;;;;116.90;33.22;;;;;;;12.25;100.00;99142.59;5171709;27;20050;-47
2022/10/29 02:33:26;;;;;;;101.00;31.95;;;;;;;12.60;100.00;99160.66;5171308;27;20054;-48
2022/10/29 02:35:53;;;;;;;100.97;32.22;;;;;;;12.17;100.00;99176.69;5171503;27;20529;-47
2022/10/29 02:38:19;;;;;;;106.03;31.75;;;;;;;12.26;100.00;99168.91;5174594;27;20144;-49
2022/10/29 02:40:45;;;;;;;98.60;28.65;;;;;;;12.14;100.00;99169.97;5175039;27;20110;-49
2022/10/29 02:43:12;;;;;;;97.47;30.98;;;;;;;12.17;100.00;99154.69;5174871;27;20098;-48
2022/10/29 02:45:38;;;;;;;92.18;29.08;;;;;;;11.93;100.00;99137.56;5174761;27;20061;-48
2022/10/29 02:48:05;;;;;;;89.22;29.58;;;;;;;12.20;100.00;99124.50;5174790;27;20077;-49
2022/10/29 02:50:31;;;;;;;81.00;27.73;;;;;;;12.17;100.00;99119.75;5174664;27;20050;-48
2022/10/29 02:52:58;;;;;;;106.50;29.77;;;;;;;12.18;100.00;99109.56;5174855;27;20058;-50
2022/10/29 02:55:24;;;;;;;95.30;27.77;;;;;;;12.08;100.00;99111.03;5174815;27;20050;-47
2022/10/29 02:57:50;;;;;;;97.97;30.85;;;;;;;12.36;100.00;99110.53;5175188;27;20052;-48
2022/10/29 03:00:17;;;;;;;112.28;32.30;;;;;;;12.43;100.00;99115.31;5174877;27;20523;-49
2022/10/29 03:02:43;;;;;;;97.28;31.40;;;;;;;12.35;100.00;99119.94;5174989;27;20050;-49
2022/10/29 03:05:10;;;;;;;95.30;31.17;;;;;;;12.28;100.00;99114.38;5174494;27;20527;-47
2022/10/29 03:07:37;;;;;;;110.03;32.22;;;;;;;12.40;100.00;99116.06;5174484;27;20132;-47
2022/10/29 03:10:05;;;;;;;109.53;34.28;;;;;;;12.31;100.00;99113.63;5174462;27;20053;-47
2022/10/29 03:12:31;;;;;;;96.88;32.22;;;;;;;12.20;100.00;99107.22;5174620;27;20402;-47
2022/10/29 03:14:57;;;;;;;112.63;32.40;;;;;;;12.34;100.00;99104.63;5174821;27;20074;-49
2022/10/29 03:17:24;;;;;;;111.65;32.15;;;;;;;11.93;100.00;99087.31;5174732;27;20054;-49
2022/10/29 03:19:50;;;;;;;99.72;31.73;;;;;;;12.11;100.00;99082.00;5174225;27;20053;-47
2022/10/29 03:22:17;;;;;;;109.88;31.70;;;;;;;12.20;100.00;99068.75;5174303;27;20050;-48
2022/10/29 03:24:43;;;;;;;109.45;34.35;;;;;;;12.34;100.00;99068.09;5174549;27;20042;-48
2022/10/29 03:27:10;;;;;;;92.70;33.47;;;;;;;12.16;100.00;99060.47;5174061;27;20102;-48
2022/10/29 03:29:36;;;;;;;115.78;35.00;;;;;;;12.17;100.00;99056.56;5173962;27;20140;-48
2022/10/29 03:32:02;;;;;;;106.60;33.28;;;;;;;12.15;100.00;99049.84;5174122;27;20050;-49
2022/10/29 03:34:28;;;;;;;107.55;34.53;;;;;;;12.06;100.00;99049.34;5174134;27;20093;-51
2022/10/29 03:36:55;;;;;;;103.45;33.08;;;;;;;11.91;100.00;99037.44;5173954;27;20055;-49
2022/10/29 03:39:21;;;;;;;92.18;30.98;;;;;;;11.95;100.00;99025.31;5173959;27;20046;-49
2022/10/29 03:41:47;;;;;;;94.28;31.35;;;;;;;11.97;100.00;99016.72;5173971;27;20065;-52
2022/10/29 03:44:14;;;;;;;101.75;33.97;;;;;;;12.09;100.00;99008.16;5173768;27;20091;-47
2022/10/29 03:46:40;;;;;;;121.20;31.65;;;;;;;12.21;100.00;99005.16;5173971;27;20042;-48
2022/10/29 03:49:06;;;;;;;102.88;33.38;;;;;;;12.05;100.00;99001.88;5173536;27;20050;-47
2022/10/29 03:51:32;;;;;;;89.47;32.35;;;;;;;11.92;100.00;98990.34;5173830;27;20136;-48
2022/10/29 03:53:59;;;;;;;110.43;33.78;;;;;;;12.33;100.00;98992.28;5173767;27;20049;-48
2022/10/29 03:56:25;;;;;;;95.05;33.00;;;;;;;12.33;100.00;98984.03;5173868;27;20081;-47
2022/10/29 03:58:51;;;;;;;109.38;33.97;;;;;;;12.47;100.00;98987.69;5173550;27;20089;-47
2022/10/29 04:01:18;;;;;;;115.00;34.47;;;;;;;12.56;100.00;98995.63;5173782;27;20054;-49
2022/10/29 04:03:44;;;;;;;104.50;35.55;;;;;;;12.20;100.00;98997.31;5173591;27;20110;-48
2022/10/29 04:06:13;;;;;;;110.10;33.72;;;;;;;12.41;100.00;98991.19;5173560;27;20050;-49
2022/10/29 04:08:40;;;;;;;96.25;33.50;;;;;;;12.32;100.00;99001.69;5173503;27;20046;-47
2022/10/29 04:11:08;;;;;;;111.03;32.95;;;;;;;12.34;100.00;98991.13;5173345;27;20444;-48
2022/10/29 04:13:34;;;;;;;107.20;33.25;;;;;;;12.36;100.00;98999.75;5173308;27;20056;-48
2022/10/29 04:16:01;;;;;;;96.50;33.92;;;;;;;12.33;100.00;98993.09;5173379;27;20054;-47
2022/10/29 04:18:28;;;;;;;97.57;33.45;;;;;;;12.64;100.00;98994.47;5173474;27;20533;-47
2022/10/29 04:20:59;;;;;;;96.85;31.13;;;;;;;12.28;100.00;99007.16;5173246;27;20194;-48
2022/10/29 04:23:25;;;;;;;103.03;34.92;;;;;;;12.17;100.00;98993.34;5173478;27;20071;-47
2022/10/29 04:25:55;;;;;;;97.45;33.33;;;;;;;12.27;100.00;98972.63;5173120;27;20051;-47
2022/10/29 04:28:22;;;;;;;110.97;32.83;;;;;;;12.34;100.00;98974.63;5173365;27;20409;-47
2022/10/29 04:30:48;;;;;;;105.10;34.97;;;;;;;12.09;100.00;98952.44;5173241;27;20444;-50
2022/10/29 04:33:14;;;;;;;88.82;30.83;;;;;;;11.98;100.00;98944.91;5172773;27;20046;-48
2022/10/29 04:35:41;;;;;;;92.63;33.35;;;;;;;12.12;100.00;98929.69;5173074;27;20053;-47
2022/10/29 04:38:08;;;;;;;98.03;32.53;;;;;;;12.10;100.00;98921.84;5172957;27;20050;-47
2022/10/29 04:40:34;;;;;;;95.57;33.20;;;;;;;12.18;100.00;98925.44;5172771;27;20505;-47
2022/10/29 04:43:00;;;;;;;97.20;32.03;;;;;;;11.95;100.00;98912.69;5172839;27;20053;-47
2022/10/29 04:45:26;;;;;;;85.65;32.28;;;;;;;11.97;100.00;98906.81;5173231;27;20465;-47
2022/10/29 04:47:58;;;;;;;98.53;33.90;;;;;;;12.12;100.00;98899.47;5172829;27;20429;-47
2022/10/29 04:50:24;;;;;;;86.97;32.30;;;;;;;11.95;100.00;98904.44;5173048;27;20050;-47
2022/10/29 04:52:51;;;;;;;96.15;35.58;;;;;;;12.33;100.00;98896.88;5172689;27;20082;-48
2022/10/29 04:55:17;;;;;;;96.47;33.45;;;;;;;12.18;100.00;98906.97;5172838;27;20050;-47
2022/10/29 04:57:48;;;;;;;91.38;33.20;;;;;;;12.49;100.00;98904.81;5172582;27;20050;-48
2022/10/29 05:00:15;;;;;;;104.95;35.28;;;;;;;12.15;100.00;98910.47;5171640;27;20057;-48
2022/10/29 05:02:41;;;;;;;105.75;34.80;;;;;;;12.52;100.00;98898.53;5172517;27;20042;-48
2022/10/29 05:05:08;;;;;;;99.60;36.97;;;;;;;12.42;100.00;98907.53;5172474;27;20140;-49
2022/10/29 05:07:34;;;;;;;104.13;35.45;;;;;;;12.48;100.00;98908.75;5172508;27;20046;-48
2022/10/29 05:10:01;;;;;;;114.97;37.67;;;;;;;12.81;100.00;98918.75;5172607;27;20424;-50
2022/10/29 05:12:27;;;;;;;99.25;34.33;;;;;;;12.78;100.00;98927.75;5172496;27;20615;-47
2022/10/29 05:14:54;;;;;;;104.63;35.80;;;;;;;12.51;100.00;98940.97;5172467;27;20042;-50
2022/10/29 05:17:20;;;;;;;94.50;34.63;;;;;;;12.55;100.00;98933.53;5172640;27;20046;-49
2022/10/29 05:19:47;;;;;;;112.22;36.90;;;;;;;12.69;100.00;98938.31;5172422;27;20481;-48
2022/10/29 05:22:13;;;;;;;99.82;34.65;;;;;;;12.82;100.00;98949.78;5172308;27;20052;-49
2022/10/29 05:24:39;;;;;;;104.22;35.78;;;;;;;13.04;100.00;98965.25;5172543;27;20096;-48
2022/10/29 05:27:07;;;;;;;109.53;36.05;;;;;;;13.09;100.00;98984.13;5172409;27;20505;-48
2022/10/29 05:29:33;;;;;;;109.18;35.92;;;;;;;12.84;100.00;99010.72;5172362;27;20068;-49
2022/10/29 05:31:59;;;;;;;110.03;38.80;;;;;;;12.92;100.00;99002.13;5172130;27;20163;-49
2022/10/29 05:34:26;;;;;;;101.90;33.47;;;;;;;13.11;100.00;99003.00;5171917;27;20043;-48
2022/10/29 05:36:52;;;;;;;105.28;34.90;;;;;;;12.78;100.00;99012.25;5171998;27;20046;-49
2022/10/29 05:39:18;;;;;;;79.25;30.42;;;;;;;12.72;100.00;99012.59;5172008;27;20499;-48
2022/10/29 05:41:46;;;;;;;96.05;31.45;;;;;;;12.84;100.00;98999.72;5171928;27;20141;-48
2022/10/29 05:44:12;;;;;;;90.30;31.75;;;;;;;12.50;100.00;98996.34;5172012;27;20050;-49
2022/10/29 05:46:39;;;;;;;67.97;30.45;;;;;;;12.48;100.00;98972.75;5171756;27;20051;-48
2022/10/29 05:49:05;;;;;;;80.45;29.45;;;;;;;12.40;100.00;98967.63;5172252;27;20049;-49
2022/10/29 05:51:31;;;;;;;75.93;31.00;;;;;;;12.67;100.00;98957.19;5172011;27;20079;-48
2022/10/29 05:53:57;;;;;;;77.03;31.63;;;;;;;12.71;100.00;98949.75;5171870;27;20132;-49
2022/10/29 05:56:24;;;;;;;82.25;31.25;;;;;;;12.56;100.00;98946.13;5171883;27;20069;-48
2022/10/29 05:58:50;;;;;;;78.93;29.90;;;;;;;12.65;100.00;98945.78;5171935;27;20527;-49
2022/10/29 06:01:18;;;;;;;91.28;32.65;;;;;;;12.97;100.00;98951.44;5171597;27;20046;-48
2022/10/29 06:03:45;;;;;;;86.88;31.92;;;;;;;13.12;100.00;98960.53;5171607;27;20055;-48
2022/10/29 06:06:11;;;;;;;91.40;32.42;;;;;;;12.93;100.00;98972.66;5171616;27;20110;-47
2022/10/29 06:08:37;;;;;;;68.20;31.92;;;;;;;13.17;100.00;98983.00;5171657;27;20050;-49
2022/10/29 06:11:04;;;;;;;83.47;30.85;;;;;;;12.84;100.00;98988.72;5173216;27;20493;-47
2022/10/29 06:13:31;;;;;;;87.18;31.02;;;;;;;12.75;100.00;98983.53;5175379;27;20048;-49
2022/10/29 06:15:58;;;;;;;83.65;30.65;;;;;;;12.66;100.00;98958.34;5175503;27;20483;-47
2022/10/29 06:18:26;;;;;;;74.45;30.40;;;;;;;12.75;100.00;98941.50;5175317;27;20046;-48
2022/10/29 06:20:53;;;;;;;68.07;30.05;;;;;;;12.78;100.00;98949.00;5175348;27;20050;-49
2022/10/29 06:23:19;;;;;;;85.22;32.00;;;;;;;13.15;100.00;98960.56;5175106;27;20141;-50
2022/10/29 06:25:45;;;;;;;79.85;31.90;;;;;;;12.86;100.00;98981.66;5175173;27;20042;-50
2022/10/29 06:28:14;;;;;;;79.30;30.63;;;;;;;13.07;100.00;98969.19;5175185;27;20088;-48
2022/10/29 06:30:41;;;;;;;68.45;29.67;;;;;;;13.07;100.00;98972.72;5174987;27;20050;-47
2022/10/29 06:33:07;;;;;;;71.72;30.20;;;;;;;12.79;100.00;98986.31;5174883;27;20046;-49
2022/10/29 06:35:34;;;;;;;71.60;29.25;;;;;;;13.03;100.00;98985.69;5174987;27;20501;-48
2022/10/29 06:38:00;;;;;;;70.05;29.45;;;;;;;13.17;100.00;98991.25;5175355;27;20042;-48
2022/10/29 06:40:26;;;;;;;68.38;29.48;;;;;;;13.28;100.00;99007.84;5175179;27;20049;-49
2022/10/29 06:42:59;;;;;;;71.43;29.48;;;;;;;13.12;100.00;99018.34;5175292;27;20092;-50
2022/10/29 06:45:25;;;;;;;62.80;30.52;;;;;;;13.23;100.00;99021.16;5174763;27;20050;-50
2022/10/29 06:47:51;;;;;;;69.35;30.02;;;;;;;13.32;100.00;99027.91;5174902;27;20054;-48
2022/10/29 06:50:17;;;;;;;73.78;30.95;;;;;;;13.39;100.00;99038.16;5174638;27;20054;-48
2022/10/29 06:52:53;;;;;;;67.38;29.83;;;;;;;13.45;100.00;99036.63;5174809;27;20102;-48
2022/10/29 06:55:19;;;;;;;67.15;30.20;;;;;;;13.07;100.00;99058.03;5174587;27;20132;-48
2022/10/29 06:57:46;;;;;;;65.18;29.15;;;;;;;13.36;100.00;99041.69;5174472;27;20446;-47
2022/10/29 07:00:12;;;;;;;59.00;29.65;;;;;;;13.23;100.00;99056.94;5174144;27;20046;-48
2022/10/29 07:02:38;;;;;;;71.65;31.48;;;;;;;13.26;100.00;99043.25;5174274;27;20061;-47
2022/10/29 07:05:05;;;;;;;81.82;31.20;;;;;;;13.35;100.00;99054.66;5174730;27;20133;-47
2022/10/29 07:07:31;;;;;;;74.90;33.13;;;;;;;13.50;100.00;99055.53;5174512;27;20046;-47
2022/10/29 07:09:58;;;;;;;77.45;33.70;;;;;;;13.41;100.00;99066.91;5174373;27;20117;-47
2022/10/29 07:12:24;;;;;;;73.57;32.00;;;;;;;13.52;100.00;99075.19;5174330;27;20050;-48
2022/10/29 07:14:53;;;;;;;67.03;31.92;;;;;;;13.50;100.00;99076.78;5174366;27;20470;-48
2022/10/29 07:17:19;;;;;;;73.20;31.98;;;;;;;13.48;100.00;99084.63;5173966;27;20050;-48
2022/10/29 07:19:45;;;;;;;71.93;32.60;;;;;;;13.55;100.00;99077.19;5174015;27;20133;-48
2022/10/29 07:22:11;;;;;;;66.88;31.60;;;;;;;13.64;100.00;99085.09;5173423;27;20046;-48
2022/10/29 07:24:38;;;;;;;73.40;30.70;;;;;;;13.28;100.00;99078.63;5174107;27;20054;-51
2022/10/29 07:27:06;;;;;;;74.38;32.20;;;;;;;13.58;100.00;99073.66;5173989;27;20509;-51
2022/10/29 07:29:32;;;;;;;70.90;30.50;;;;;;;13.63;100.00;99065.03;5173866;27;20049;-49
2022/10/29 07:31:58;;;;;;;67.53;31.05;;;;;;;13.48;100.00;99062.59;5174235;27;20054;-46
2022/10/29 07:34:24;;;;;;;65.38;31.77;;;;;;;13.60;100.00;99065.03;5174117;27;20047;-48
2022/10/29 07:36:50;;;;;;;90.65;32.90;;;;;;;13.89;100.00;99058.44;5173952;27;20485;-48
2022/10/29 07:39:17;;;;;;;76.43;31.88;;;;;;;13.93;100.00;99088.75;5173772;27;20046;-48
2022/10/29 07:41:43;;;;;;;69.63;31.58;;;;;;;14.07;100.00;99108.09;5173826;27;20057;-50
2022/10/29 07:44:10;;;;;;;68.55;31.05;;;;;;;14.13;100.00;99117.56;5173848;27;20042;-48
2022/10/29 07:46:37;;;;;;;67.28;31.48;;;;;;;13.99;100.00;99133.25;5173805;27;20050;-51
2022/10/29 07:49:03;;;;;;;71.22;31.60;;;;;;;14.06;100.00;99133.28;5174089;27;20050;-50
2022/10/29 07:51:29;;;;;;;74.32;32.40;;;;;;;14.10;100.00;99142.38;5173791;27;20054;-49
2022/10/29 07:53:55;;;;;;;66.53;31.30;;;;;;;14.09;100.00;99141.56;5173820;27;20050;-50
2022/10/29 07:56:21;;;;;;;69.45;32.25;;;;;;;14.10;100.00;99129.38;5173463;27;20102;-50
2022/10/29 07:58:48;;;;;;;69.35;29.70;;;;;;;14.10;100.00;99136.84;5173589;27;20042;-53
2022/10/29 08:01:14;;;;;;;62.20;29.77;;;;;;;14.26;100.00;99139.22;5173520;27;20091;-50
2022/10/29 08:03:41;;;;;;;71.97;32.33;;;;;;;14.27;100.00;99152.66;5173619;27;20053;-50
2022/10/29 08:06:07;;;;;;;63.20;29.67;;;;;;;14.14;100.00;99167.97;5173478;27;20046;-48
2022/10/29 08:08:34;;;;;;;68.45;31.50;;;;;;;14.24;100.00;99144.38;5173598;27;20489;-52
2022/10/29 08:11:01;;;;;;;63.40;29.88;;;;;;;14.12;100.00;99151.81;5173338;27;20053;-50
2022/10/29 08:13:28;;;;;;;65.28;31.65;;;;;;;14.03;100.00;99167.94;5173496;27;20497;-48
2022/10/29 08:15:54;;;;;;;68.53;30.23;;;;;;;14.20;100.00;99163.66;5173254;27;20098;-48
2022/10/29 08:18:21;;;;;;;63.00;30.40;;;;;;;14.17;100.00;99161.69;5173231;27;20091;-49
2022/10/29 08:20:47;;;;;;;69.30;30.27;;;;;;;14.16;100.00;99162.06;5173024;27;20042;-48
2022/10/29 08:23:14;;;;;;;59.33;29.30;;;;;;;14.23;100.00;99156.56;5172894;27;20057;-48
2022/10/29 08:25:41;;;;;;;60.97;29.80;;;;;;;14.16;100.00;99160.09;5172889;27;20182;-49
2022/10/29 08:28:09;;;;;;;50.85;29.63;;;;;;;14.26;100.00;99144.75;5172991;27;20077;-49
2022/10/29 08:30:35;;;;;;;63.55;30.52;;;;;;;14.07;100.00;99152.19;5173110;27;20081;-50
2022/10/29 08:33:02;;;;;;;58.58;29.00;;;;;;;14.31;100.00;99145.16;5173102;27;20073;-48
2022/10/29 08:35:29;;;;;;;67.68;29.30;;;;;;;14.01;100.00;99122.63;5171813;27;20050;-49
2022/10/29 08:37:56;;;;;;;64.68;30.73;;;;;;;14.00;100.00;99115.56;5172624;27;20047;-50
2022/10/29 08:40:28;;;;;;;57.92;29.45;;;;;;;14.10;100.00;99114.78;5172881;27;20057;-49
2022/10/29 08:43:30;;;;;;;56.15;29.20;;;;;;;14.31;100.00;99114.06;5172891;27;20096;-50
2022/10/29 08:45:56;;;;;;;51.88;27.17;;;;;;;14.39;100.00;99136.91;5135462;27;20469;-48
2022/10/29 08:48:32;;;;;;;60.25;29.92;;;;;;;14.54;100.00;99149.59;5172489;27;20090;-48
2022/10/29 08:51:04;;;;;;;51.42;28.30;;;;;;;14.65;100.00;99166.16;5173135;27;20058;-50
2022/10/29 08:53:36;;;;;;;54.90;27.67;;;;;;;14.66;100.00;99162.19;5172749;27;20085;-50
2022/10/29 08:56:05;;;;;;;52.08;26.17;;;;;;;14.69;100.00;99177.97;5172584;27;20046;-48
2022/10/29 08:58:38;;;;;;;48.08;27.45;;;;;;;14.69;100.00;99178.75;5172751;27;20081;-48
2022/10/29 09:01:10;;;;;;;56.47;27.52;;;;;;;14.53;100.00;99176.38;5172570;27;20646;-48
2022/10/29 09:03:36;;;;;;;49.10;25.63;;;;;;;14.62;100.00;99183.47;5172873;27;20057;-50
2022/10/29 09:06:10;;;;;;;46.88;24.92;;;;;;;14.73;100.00;99173.28;5172530;27;20050;-48
2022/10/29 09:09:01;;;;;;;56.20;26.25;;;;;;;14.41;100.00;99173.16;5172444;27;20501;-48
2022/10/29 09:11:53;;;;;;;55.15;24.95;;;;;;;14.34;100.00;99168.44;5172273;27;20157;-48
2022/10/29 09:14:38;;;;;;;56.47;26.70;;;;;;;14.28;100.00;99139.66;5172447;27;20057;-48
2022/10/29 09:17:15;;;;;;;44.75;25.67;;;;;;;14.49;100.00;99142.44;5172280;27;20520;-49
2022/10/29 09:19:56;;;;;;;47.10;26.25;;;;;;;14.52;100.00;99146.41;5172227;27;20046;-48
2022/10/29 09:22:31;;;;;;;47.92;25.65;;;;;;;14.34;100.00;99163.69;5172449;27;20053;-48
2022/10/29 09:25:10;;;;;;;68.25;43.45;;;;;;;14.02;100.00;99151.78;5172556;27;20133;-50
2022/10/29 09:27:53;;;;;;;54.00;25.58;;;;;;;14.64;100.00;99151.56;5172074;27;20094;-48
2022/10/29 09:30:20;;;;;;;56.83;24.60;;;;;;;14.23;100.00;99170.34;5172362;27;20061;-48
2022/10/29 09:32:55;;;;;;;48.33;25.85;;;;;;;14.42;100.00;99164.50;5171926;27;20043;-47
2022/10/29 09:35:31;;;;;;;44.13;24.38;;;;;;;14.68;100.00;99181.91;5171966;27;20050;-48
2022/10/29 09:38:00;;;;;;;49.03;24.42;;;;;;;14.49;100.00;99177.50;5171915;27;20050;-48
2022/10/29 09:40:32;;;;;;;48.88;24.95;;;;;;;14.54;100.00;99177.16;5171846;27;20179;-49
2022/10/29 09:43:01;;;;;;;45.55;25.50;;;;;;;14.41;100.00;99195.22;5171894;27;20137;-48
2022/10/29 09:45:41;;;;;;;45.85;25.20;;;;;;;14.45;100.00;99190.50;5172415;27;20061;-49
2022/10/29 09:48:14;;;;;;;50.53;24.85;;;;;;;14.34;100.00;99160.16;5175649;27;20070;-48
2022/10/29 09:50:51;;;;;;;45.65;24.23;;;;;;;14.39;100.00;99134.94;5175481;27;20057;-49
2022/10/29 09:53:18;;;;;;;52.53;23.90;;;;;;;14.33;100.00;99145.56;5176233;27;20947;-48
2022/10/29 09:55:52;;;;;;;46.38;22.80;;;;;;;14.47;100.00;99158.59;5175737;27;20042;-50
2022/10/29 09:58:20;;;;;;;45.20;23.17;;;;;;;14.48;100.00;99146.38;5175629;27;20532;-49
2022/10/29 10:00:46;;;;;;;48.30;24.35;;;;;;;14.63;100.00;99174.00;5175420;27;20092;-50
2022/10/29 10:03:19;;;;;;;46.47;23.92;;;;;;;14.74;100.00;99178.38;5175403;27;20091;-48
2022/10/29 10:06:02;;;;;;;48.85;23.52;;;;;;;14.67;100.00;99178.38;5175572;27;20102;-50
2022/10/29 10:08:29;;;;;;;41.83;22.42;;;;;;;14.29;100.00;99122.69;5175334;27;20050;-49
2022/10/29 10:10:56;;;;;;;44.70;23.80;;;;;;;14.52;100.00;99113.31;5175509;27;20046;-49
2022/10/29 10:13:24;;;;;;;41.50;24.02;;;;;;;14.55;100.00;99105.03;5175307;27;20129;-50
2022/10/29 10:15:53;;;;;;;45.70;22.70;;;;;;;14.58;100.00;99100.72;5175322;27;20078;-51
2022/10/29 10:18:22;;;;;;;42.85;24.27;;;;;;;14.54;100.00;99064.84;5175510;27;20129;-48
2022/10/29 10:21:00;;;;;;;46.78;24.42;;;;;;;14.65;100.00;99062.09;5175192;27;20191;-49
2022/10/29 10:23:29;;;;;;;41.42;23.38;;;;;;;14.63;100.00;99074.69;5175510;27;20453;-48
2022/10/29 10:25:59;;;;;;;35.83;21.05;;;;;;;14.54;100.00;99062.09;5175116;27;20178;-53
2022/10/29 10:28:28;;;;;;;39.25;21.08;;;;;;;14.88;100.00;99047.88;5175326;27;20539;-48
2022/10/29 10:31:12;;;;;;;61.45;22.20;;;;;;;14.96;100.00;99099.16;5175001;27;20079;-48
2022/10/29 10:33:48;;;;;;;;;;;;;;;15.00;100.00;99107.41;5175680;27;20054;-51
2022/10/29 10:36:15;;;;;;;46.88;21.05;;;;;;;14.87;100.00;99104.28;5175270;27;19923;-49
2022/10/29 10:38:46;;;;;;;52.55;23.70;;;;;;;14.79;100.00;99086.13;5174875;27;20054;-48
2022/10/29 10:41:14;;;;;;;46.03;22.13;;;;;;;15.37;100.00;99109.72;5175058;27;20424;-49
2022/10/29 10:43:43;;;;;;;40.42;21.73;;;;;;;15.31;100.00;99130.66;5175287;27;20042;-50
2022/10/29 10:46:14;;;;;;;42.92;22.27;;;;;;;15.39;100.00;99150.75;5174763;27;20052;-52
2022/10/29 10:48:41;;;;;;;42.63;21.30;;;;;;;15.21;100.00;99170.91;5174744;27;20497;-48
2022/10/29 10:51:11;;;;;;;40.08;21.83;;;;;;;15.10;100.00;99161.84;5175139;27;20053;-49
2022/10/29 10:53:40;;;;;;;37.65;22.30;;;;;;;15.08;100.00;99155.91;5174740;27;20523;-48
2022/10/29 10:56:17;;;;;;;41.05;23.30;;;;;;;14.75;100.00;99155.13;5175073;27;20062;-49
2022/10/29 10:58:54;;;;;;;46.28;23.50;;;;;;;15.17;100.00;99144.47;5173856;27;20042;-48
2022/10/29 11:01:25;;;;;;;56.58;22.65;;;;;;;15.03;100.00;99137.00;5174497;27;20077;-48
2022/10/29 11:04:01;;;;;;;41.72;23.77;;;;;;;15.03;100.00;99114.91;5174580;27;20046;-49
2022/10/29 11:06:32;;;;;;;40.08;22.65;;;;;;;15.16;100.00;99118.03;5174707;27;20487;-50
2022/10/29 11:09:06;;;;;;;51.05;24.38;;;;;;;15.02;100.00;99100.28;5174610;27;20136;-48
2022/10/29 11:11:35;;;;;;;;;;;;;;;15.17;100.00;99138.97;5174921;27;20064;-48
2022/10/29 11:14:07;;;;;;;48.00;22.35;;;;;;;15.20;100.00;99140.94;5174938;27;19923;-49
2022/10/29 11:16:40;;;;;;;38.50;21.23;;;;;;;15.21;100.00;99110.16;5174344;27;20050;-48